ITY269 LICJ-LICA
Flight info
| Callsign | ITY269 |
|---|---|
| Flight time | 0h 29m |
| Altitude | 18000 |
| Route | PAL L869 CDC |
| Aircraft | A320/M-SDE3FGHIRWY/LB1 |
Departure
| Time | 2026-05-08 21:15 |
|---|---|
| Airport | Falcone–Borsellino Airport (LICJ) |
Arrival
| Time | 2026-05-08 21:44 |
|---|---|
| Airport | Lamezia Terme Sant'Eufemia International Airport (LICA) |
| Time | Latitude | Longitude | Altitude | Speed | Heading |
|---|---|---|---|---|---|
| 2026-05-08 20:45 | 38.18567 | 13.10664 | 65 ft | 0 kts | 337° |
| 2026-05-08 20:57 | 38.18565 | 13.10665 | 65 ft | 1 kts | 336° |
| 2026-05-08 20:57 | 38.18549 | 13.10674 | 63 ft | 3 kts | 332° |
| 2026-05-08 20:58 | 38.18532 | 13.10686 | 56 ft | 3 kts | 323° |
| 2026-05-08 20:58 | 38.18517 | 13.10703 | 45 ft | 3 kts | 305° |
| 2026-05-08 20:58 | 38.18509 | 13.10723 | 38 ft | 2 kts | 261° |
| 2026-05-08 20:58 | 38.18510 | 13.10731 | 66 ft | 0 kts | 247° |
| 2026-05-08 21:01 | 38.18509 | 13.10729 | 65 ft | 2 kts | 247° |
| 2026-05-08 21:01 | 38.18499 | 13.10698 | 60 ft | 4 kts | 247° |
| 2026-05-08 21:02 | 38.18488 | 13.10667 | 59 ft | 6 kts | 247° |
| 2026-05-08 21:02 | 38.18472 | 13.10618 | 60 ft | 6 kts | 247° |
| 2026-05-08 21:02 | 38.18457 | 13.10572 | 62 ft | 7 kts | 247° |
| 2026-05-08 21:02 | 38.18427 | 13.10521 | 63 ft | 10 kts | 213° |
| 2026-05-08 21:03 | 38.18345 | 13.10477 | 65 ft | 13 kts | 211° |
| 2026-05-08 21:03 | 38.18292 | 13.10374 | 64 ft | 15 kts | 248° |
| 2026-05-08 21:03 | 38.18284 | 13.10344 | 61 ft | 0 kts | 249° |
| 2026-05-08 21:03 | 38.18279 | 13.10327 | 65 ft | 8 kts | 249° |
| 2026-05-08 21:04 | 38.18253 | 13.10248 | 61 ft | 12 kts | 247° |
| 2026-05-08 21:04 | 38.18213 | 13.10128 | 63 ft | 16 kts | 246° |
| 2026-05-08 21:04 | 38.18164 | 13.09984 | 61 ft | 19 kts | 246° |
| 2026-05-08 21:04 | 38.18148 | 13.09834 | 58 ft | 14 kts | 311° |
| 2026-05-08 21:05 | 38.18222 | 13.09794 | 65 ft | 11 kts | 337° |
| 2026-05-08 21:05 | 38.18292 | 13.09750 | 65 ft | 11 kts | 323° |
| 2026-05-08 21:05 | 38.18332 | 13.09671 | 58 ft | 11 kts | 295° |
| 2026-05-08 21:05 | 38.18361 | 13.09583 | 66 ft | 10 kts | 289° |
| 2026-05-08 21:06 | 38.18334 | 13.09528 | 69 ft | 1 kts | 209° |
| 2026-05-08 21:14 | 38.18334 | 13.09527 | 69 ft | 0 kts | 209° |
| 2026-05-08 21:14 | 38.18299 | 13.09506 | 69 ft | 26 kts | 206° |
| 2026-05-08 21:14 | 38.17866 | 13.09263 | 71 ft | 105 kts | 203° |
| 2026-05-08 21:14 | 38.16998 | 13.08769 | 85 ft | 164 kts | 206° |
| 2026-05-08 21:15 | 38.15927 | 13.08132 | 694 ft | 170 kts | 213° |
| 2026-05-08 21:15 | 38.15133 | 13.07038 | 1509 ft | 171 kts | 246° |
| 2026-05-08 21:15 | 38.14901 | 13.05574 | 2237 ft | 176 kts | 274° |
| 2026-05-08 21:15 | 38.15270 | 13.04021 | 2681 ft | 195 kts | 303° |
| 2026-05-08 21:16 | 38.16109 | 13.02572 | 3342 ft | 206 kts | 309° |
| 2026-05-08 21:16 | 38.17008 | 13.01163 | 4324 ft | 204 kts | 310° |
| 2026-05-08 21:16 | 38.17910 | 12.99827 | 5315 ft | 199 kts | 311° |
| 2026-05-08 21:16 | 38.18941 | 12.98537 | 5890 ft | 222 kts | 324° |
| 2026-05-08 21:17 | 38.20449 | 12.97798 | 6446 ft | 245 kts | 350° |
| 2026-05-08 21:17 | 38.22213 | 12.97982 | 7083 ft | 269 kts | 13° |
| 2026-05-08 21:17 | 38.23923 | 12.99137 | 7765 ft | 290 kts | 34° |
| 2026-05-08 21:17 | 38.25504 | 13.00815 | 8600 ft | 301 kts | 37° |
| 2026-05-08 21:18 | 38.26942 | 13.02791 | 9524 ft | 312 kts | 53° |
| 2026-05-08 21:18 | 38.27778 | 13.05399 | 10337 ft | 327 kts | 75° |
| 2026-05-08 21:18 | 38.28205 | 13.08362 | 10699 ft | 353 kts | 79° |
| 2026-05-08 21:18 | 38.28674 | 13.11546 | 11058 ft | 375 kts | 76° |
| 2026-05-08 21:19 | 38.29286 | 13.14865 | 11498 ft | 391 kts | 73° |
| 2026-05-08 21:19 | 38.30024 | 13.18220 | 12239 ft | 396 kts | 71° |
| 2026-05-08 21:19 | 38.30840 | 13.21597 | 13001 ft | 401 kts | 71° |
| 2026-05-08 21:19 | 38.31687 | 13.25005 | 13751 ft | 407 kts | 71° |
| 2026-05-08 21:20 | 38.32527 | 13.28421 | 14414 ft | 412 kts | 71° |
| 2026-05-08 21:20 | 38.33370 | 13.31926 | 15071 ft | 417 kts | 71° |
| 2026-05-08 21:20 | 38.34202 | 13.35491 | 15726 ft | 422 kts | 72° |
| 2026-05-08 21:20 | 38.35029 | 13.39105 | 16367 ft | 427 kts | 72° |
| 2026-05-08 21:21 | 38.35855 | 13.42756 | 17012 ft | 432 kts | 72° |
| 2026-05-08 21:21 | 38.36688 | 13.46467 | 17651 ft | 438 kts | 72° |
| 2026-05-08 21:21 | 38.37529 | 13.50227 | 17976 ft | 442 kts | 72° |
| 2026-05-08 21:21 | 38.38383 | 13.54030 | 18059 ft | 455 kts | 72° |
| 2026-05-08 21:22 | 38.39280 | 13.57995 | 18075 ft | 473 kts | 72° |
| 2026-05-08 21:22 | 38.40202 | 13.62065 | 18068 ft | 480 kts | 72° |
| 2026-05-08 21:22 | 38.41132 | 13.66166 | 18069 ft | 482 kts | 72° |
| 2026-05-08 21:22 | 38.42061 | 13.70274 | 18066 ft | 482 kts | 72° |
| 2026-05-08 21:23 | 38.42976 | 13.74331 | 18067 ft | 482 kts | 72° |
| 2026-05-08 21:23 | 38.43902 | 13.78443 | 18073 ft | 483 kts | 72° |
| 2026-05-08 21:23 | 38.44827 | 13.82559 | 18065 ft | 483 kts | 72° |
| 2026-05-08 21:23 | 38.45751 | 13.86681 | 18064 ft | 483 kts | 72° |
| 2026-05-08 21:24 | 38.46671 | 13.90803 | 18062 ft | 483 kts | 73° |
| 2026-05-08 21:24 | 38.47356 | 13.93895 | 18068 ft | 483 kts | 73° |
| 2026-05-08 21:24 | 38.47376 | 13.93986 | 18064 ft | 483 kts | 73° |
| 2026-05-08 21:24 | 38.48291 | 13.98123 | 18070 ft | 483 kts | 73° |
| 2026-05-08 21:25 | 38.49203 | 14.02252 | 18067 ft | 483 kts | 73° |
| 2026-05-08 21:25 | 38.50114 | 14.06377 | 18069 ft | 483 kts | 73° |
| 2026-05-08 21:25 | 38.51025 | 14.10503 | 18068 ft | 483 kts | 73° |
| 2026-05-08 21:25 | 38.51936 | 14.14631 | 18071 ft | 483 kts | 73° |
| 2026-05-08 21:26 | 38.52846 | 14.18763 | 18064 ft | 483 kts | 73° |
| 2026-05-08 21:26 | 38.53740 | 14.22836 | 18067 ft | 483 kts | 73° |
| 2026-05-08 21:26 | 38.54664 | 14.27019 | 18068 ft | 483 kts | 73° |
| 2026-05-08 21:26 | 38.55574 | 14.31155 | 18071 ft | 483 kts | 73° |
| 2026-05-08 21:27 | 38.56467 | 14.35235 | 18070 ft | 483 kts | 73° |
| 2026-05-08 21:27 | 38.57370 | 14.39368 | 18065 ft | 483 kts | 73° |
| 2026-05-08 21:27 | 38.58276 | 14.43517 | 18064 ft | 483 kts | 73° |
| 2026-05-08 21:27 | 38.59178 | 14.47655 | 18070 ft | 484 kts | 73° |
| 2026-05-08 21:28 | 38.60080 | 14.51797 | 18069 ft | 484 kts | 73° |
| 2026-05-08 21:28 | 38.60979 | 14.55940 | 18064 ft | 484 kts | 73° |
| 2026-05-08 21:28 | 38.61879 | 14.60090 | 18067 ft | 484 kts | 73° |
| 2026-05-08 21:28 | 38.62471 | 14.62830 | 18070 ft | 484 kts | 73° |
| 2026-05-08 21:29 | 38.63363 | 14.66981 | 18071 ft | 484 kts | 73° |
| 2026-05-08 21:29 | 38.64253 | 14.71129 | 18065 ft | 484 kts | 73° |
| 2026-05-08 21:29 | 38.65145 | 14.75284 | 18067 ft | 484 kts | 73° |
| 2026-05-08 21:29 | 38.66036 | 14.79438 | 18060 ft | 484 kts | 73° |
| 2026-05-08 21:30 | 38.66928 | 14.83590 | 18058 ft | 484 kts | 73° |
| 2026-05-08 21:30 | 38.67817 | 14.87748 | 18056 ft | 484 kts | 73° |
| 2026-05-08 21:30 | 38.68988 | 14.93250 | 18057 ft | 484 kts | 73° |
| 2026-05-08 21:30 | 38.69583 | 14.96048 | 17995 ft | 475 kts | 73° |
| 2026-05-08 21:31 | 38.70443 | 15.00119 | 16983 ft | 476 kts | 73° |
| 2026-05-08 21:31 | 38.71290 | 15.04134 | 16357 ft | 469 kts | 73° |
| 2026-05-08 21:31 | 38.72134 | 15.08132 | 15772 ft | 462 kts | 73° |
| 2026-05-08 21:31 | 38.72979 | 15.12127 | 15169 ft | 456 kts | 73° |
| 2026-05-08 21:32 | 38.73792 | 15.15973 | 14551 ft | 451 kts | 73° |
| 2026-05-08 21:32 | 38.74606 | 15.19828 | 13929 ft | 447 kts | 73° |
| 2026-05-08 21:32 | 38.75414 | 15.23657 | 13220 ft | 443 kts | 73° |
| 2026-05-08 21:32 | 38.76210 | 15.27441 | 12527 ft | 437 kts | 73° |
| 2026-05-08 21:33 | 38.76989 | 15.31170 | 11829 ft | 431 kts | 73° |
| 2026-05-08 21:33 | 38.77763 | 15.34875 | 11110 ft | 426 kts | 73° |
| 2026-05-08 21:33 | 38.78512 | 15.38475 | 10889 ft | 408 kts | 73° |
| 2026-05-08 21:33 | 38.79221 | 15.41903 | 10769 ft | 388 kts | 73° |
| 2026-05-08 21:34 | 38.79896 | 15.45163 | 10649 ft | 370 kts | 73° |
| 2026-05-08 21:34 | 38.80543 | 15.48280 | 10532 ft | 354 kts | 73° |
| 2026-05-08 21:34 | 38.81164 | 15.51264 | 10414 ft | 339 kts | 73° |
| 2026-05-08 21:34 | 38.81758 | 15.54126 | 10291 ft | 326 kts | 73° |
| 2026-05-08 21:35 | 38.82335 | 15.56904 | 10087 ft | 318 kts | 73° |
| 2026-05-08 21:35 | 38.82901 | 15.59632 | 9750 ft | 314 kts | 73° |
| 2026-05-08 21:35 | 38.83461 | 15.62342 | 9349 ft | 312 kts | 73° |
| 2026-05-08 21:35 | 38.84006 | 15.64991 | 8949 ft | 310 kts | 73° |
| 2026-05-08 21:36 | 38.84554 | 15.67654 | 8570 ft | 307 kts | 74° |
| 2026-05-08 21:36 | 38.85096 | 15.70291 | 8152 ft | 305 kts | 74° |
| 2026-05-08 21:36 | 38.85636 | 15.72911 | 7770 ft | 301 kts | 74° |
| 2026-05-08 21:36 | 38.86168 | 15.75499 | 7362 ft | 300 kts | 74° |
| 2026-05-08 21:37 | 38.86695 | 15.78071 | 6966 ft | 297 kts | 74° |
| 2026-05-08 21:37 | 38.87216 | 15.80629 | 6573 ft | 294 kts | 75° |
| 2026-05-08 21:37 | 38.87730 | 15.83159 | 6170 ft | 291 kts | 75° |
| 2026-05-08 21:37 | 38.88239 | 15.85666 | 5741 ft | 289 kts | 75° |
| 2026-05-08 21:38 | 38.88735 | 15.88103 | 5695 ft | 271 kts | 75° |
| 2026-05-08 21:38 | 38.89198 | 15.90386 | 5418 ft | 264 kts | 75° |
| 2026-05-08 21:38 | 38.89673 | 15.92719 | 4750 ft | 273 kts | 75° |
| 2026-05-08 21:38 | 38.90138 | 15.95006 | 4319 ft | 263 kts | 75° |
| 2026-05-08 21:39 | 38.90588 | 15.97219 | 3968 ft | 250 kts | 75° |
| 2026-05-08 21:39 | 38.90992 | 15.99211 | 3658 ft | 0 kts | 75° |
| 2026-05-08 21:39 | 38.91329 | 16.00939 | 3433 ft | 230 kts | 75° |
| 2026-05-08 21:39 | 38.91729 | 16.02869 | 3109 ft | 223 kts | 75° |
| 2026-05-08 21:40 | 38.92131 | 16.04760 | 2811 ft | 215 kts | 75° |
| 2026-05-08 21:40 | 38.92483 | 16.06595 | 2520 ft | 207 kts | 85° |
| 2026-05-08 21:40 | 38.92369 | 16.08384 | 2298 ft | 195 kts | 99° |
| 2026-05-08 21:41 | 38.91999 | 16.11612 | 1749 ft | 169 kts | 99° |
| 2026-05-08 21:41 | 38.91835 | 16.13046 | 1533 ft | 156 kts | 99° |
| 2026-05-08 21:41 | 38.91680 | 16.14368 | 1333 ft | 144 kts | 98° |
| 2026-05-08 21:41 | 38.91535 | 16.15606 | 1177 ft | 136 kts | 98° |
| 2026-05-08 21:42 | 38.91397 | 16.16791 | 984 ft | 133 kts | 98° |
| 2026-05-08 21:42 | 38.91262 | 16.17953 | 813 ft | 131 kts | 98° |
| 2026-05-08 21:42 | 38.91131 | 16.19105 | 642 ft | 130 kts | 98° |
| 2026-05-08 21:42 | 38.91002 | 16.20252 | 461 ft | 129 kts | 98° |
| 2026-05-08 21:43 | 38.90870 | 16.21374 | 278 ft | 128 kts | 98° |
| 2026-05-08 21:43 | 38.90739 | 16.22500 | 139 ft | 128 kts | 97° |
| 2026-05-08 21:43 | 38.90615 | 16.23614 | 35 ft | 117 kts | 98° |
| 2026-05-08 21:43 | 38.90518 | 16.24427 | 32 ft | 67 kts | 98° |
| 2026-05-08 21:44 | 38.90493 | 16.24797 | 34 ft | 32 kts | 79° |
| 2026-05-08 21:44 | 38.90545 | 16.24966 | 38 ft | 6 kts | 66° |
| 2026-05-08 21:44 | 38.90546 | 16.24967 | 38 ft | 0 kts | 66° |
| 2026-05-08 21:44 | 38.91526 | 16.15679 | 1164 ft | 136 kts | 98° |
| 2026-05-08 21:45 | 38.91388 | 16.16864 | 973 ft | 133 kts | 98° |
| 2026-05-08 21:45 | 38.91254 | 16.18026 | 802 ft | 131 kts | 98° |
| 2026-05-08 21:45 | 38.91123 | 16.19176 | 631 ft | 130 kts | 98° |
| 2026-05-08 21:45 | 38.90994 | 16.20321 | 450 ft | 129 kts | 98° |
| 2026-05-08 21:46 | 38.90860 | 16.21455 | 268 ft | 128 kts | 98° |
| 2026-05-08 21:46 | 38.90732 | 16.22568 | 128 ft | 128 kts | 98° |
| 2026-05-08 21:46 | 38.90608 | 16.23675 | 34 ft | 115 kts | 100° |
| 2026-05-08 21:46 | 38.90514 | 16.24462 | 32 ft | 64 kts | 98° |
| 2026-05-08 21:47 | 38.90496 | 16.24813 | 34 ft | 31 kts | 76° |
| 2026-05-08 21:47 | 38.90546 | 16.24967 | 38 ft | 0 kts | 66° |
| 2026-05-08 21:47 | 38.90545 | 16.24967 | 38 ft | 0 kts | 66° |
| 2026-05-08 21:47 | 38.90553 | 16.24988 | 38 ft | 5 kts | 64° |
| 2026-05-08 21:48 | 38.90584 | 16.25029 | 37 ft | 12 kts | 31° |
| 2026-05-08 21:48 | 38.90671 | 16.24991 | 33 ft | 16 kts | 308° |
| 2026-05-08 21:48 | 38.90754 | 16.24891 | 32 ft | 17 kts | 309° |
| 2026-05-08 21:48 | 38.90779 | 16.24750 | 32 ft | 16 kts | 277° |
| 2026-05-08 21:49 | 38.90792 | 16.24618 | 32 ft | 15 kts | 278° |
| 2026-05-08 21:49 | 38.90809 | 16.24518 | 32 ft | 5 kts | 322° |
| 2026-05-08 21:49 | 38.90840 | 16.24514 | 32 ft | 4 kts | 5° |
| 2026-05-08 21:49 | 38.90861 | 16.24519 | 32 ft | 0 kts | 26° |
| 2026-05-08 21:50 | 38.90867 | 16.24529 | 32 ft | 1 kts | 47° |